sensor_id;sensor_type;location;lat;lon;timestamp;temperature;humidity
6520;DHT22;3293;51.690;5.982;2024-01-30T00:02:27;7.40;99.90
6520;DHT22;3293;51.690;5.982;2024-01-30T00:07:27;7.40;99.90
6520;DHT22;3293;51.690;5.982;2024-01-30T00:12:27;7.40;99.90
6520;DHT22;3293;51.690;5.982;2024-01-30T00:17:27;7.30;99.90
6520;DHT22;3293;51.690;5.982;2024-01-30T00:22:27;7.20;99.90
6520;DHT22;3293;51.690;5.982;2024-01-30T00:27:30;7.10;99.90
6520;DHT22;3293;51.690;5.982;2024-01-30T00:32:30;7.10;99.90
6520;DHT22;3293;51.690;5.982;2024-01-30T00:37:30;7.20;99.90
6520;DHT22;3293;51.690;5.982;2024-01-30T00:42:31;7.20;99.90
6520;DHT22;3293;51.690;5.982;2024-01-30T00:47:31;7.20;99.90
6520;DHT22;3293;51.690;5.982;2024-01-30T00:52:32;7.20;99.90
6520;DHT22;3293;51.690;5.982;2024-01-30T00:57:32;7.20;99.90
6520;DHT22;3293;51.690;5.982;2024-01-30T01:02:32;7.20;99.90
6520;DHT22;3293;51.690;5.982;2024-01-30T01:07:32;7.20;99.90
6520;DHT22;3293;51.690;5.982;2024-01-30T01:12:32;7.20;99.90
6520;DHT22;3293;51.690;5.982;2024-01-30T01:17:32;7.20;99.90
6520;DHT22;3293;51.690;5.982;2024-01-30T01:22:32;7.10;99.90
6520;DHT22;3293;51.690;5.982;2024-01-30T01:27:32;7.10;99.90
6520;DHT22;3293;51.690;5.982;2024-01-30T01:32:34;7.10;99.90
6520;DHT22;3293;51.690;5.982;2024-01-30T01:37:34;7.10;99.90
6520;DHT22;3293;51.690;5.982;2024-01-30T01:42:33;7.10;99.90
6520;DHT22;3293;51.690;5.982;2024-01-30T01:47:33;7.10;99.90
6520;DHT22;3293;51.690;5.982;2024-01-30T01:52:33;7.20;99.90
6520;DHT22;3293;51.690;5.982;2024-01-30T01:57:34;7.30;99.90
6520;DHT22;3293;51.690;5.982;2024-01-30T02:02:35;7.20;99.90
6520;DHT22;3293;51.690;5.982;2024-01-30T02:07:35;7.20;99.90
6520;DHT22;3293;51.690;5.982;2024-01-30T02:12:35;7.30;99.90
6520;DHT22;3293;51.690;5.982;2024-01-30T02:17:35;7.40;99.90
6520;DHT22;3293;51.690;5.982;2024-01-30T02:22:36;7.50;99.90
6520;DHT22;3293;51.690;5.982;2024-01-30T02:27:37;7.60;99.90
6520;DHT22;3293;51.690;5.982;2024-01-30T02:32:36;7.60;99.90
6520;DHT22;3293;51.690;5.982;2024-01-30T02:37:36;7.50;99.90
6520;DHT22;3293;51.690;5.982;2024-01-30T02:42:36;7.50;99.90
6520;DHT22;3293;51.690;5.982;2024-01-30T02:47:36;7.60;99.90
6520;DHT22;3293;51.690;5.982;2024-01-30T02:52:36;7.50;99.90
6520;DHT22;3293;51.690;5.982;2024-01-30T02:57:36;7.50;99.90
6520;DHT22;3293;51.690;5.982;2024-01-30T03:02:36;7.40;99.90
6520;DHT22;3293;51.690;5.982;2024-01-30T03:07:37;7.20;99.90
6520;DHT22;3293;51.690;5.982;2024-01-30T03:12:36;7.20;99.90
6520;DHT22;3293;51.690;5.982;2024-01-30T03:17:36;7.20;99.90
6520;DHT22;3293;51.690;5.982;2024-01-30T03:22:36;7.20;99.90
6520;DHT22;3293;51.690;5.982;2024-01-30T03:27:36;7.30;99.90
6520;DHT22;3293;51.690;5.982;2024-01-30T03:32:36;7.30;99.90
6520;DHT22;3293;51.690;5.982;2024-01-30T03:37:36;7.30;99.90
6520;DHT22;3293;51.690;5.982;2024-01-30T03:42:36;7.30;99.90
6520;DHT22;3293;51.690;5.982;2024-01-30T03:47:36;7.30;99.90
6520;DHT22;3293;51.690;5.982;2024-01-30T03:52:36;7.30;99.90
6520;DHT22;3293;51.690;5.982;2024-01-30T03:57:35;7.30;99.90
6520;DHT22;3293;51.690;5.982;2024-01-30T04:02:35;7.40;99.90
6520;DHT22;3293;51.690;5.982;2024-01-30T04:07:35;7.40;99.90
6520;DHT22;3293;51.690;5.982;2024-01-30T04:12:36;7.50;99.90
6520;DHT22;3293;51.690;5.982;2024-01-30T04:17:35;7.60;99.90
6520;DHT22;3293;51.690;5.982;2024-01-30T04:22:35;7.60;99.90
6520;DHT22;3293;51.690;5.982;2024-01-30T04:27:35;7.70;99.90
6520;DHT22;3293;51.690;5.982;2024-01-30T04:32:36;7.70;99.90
6520;DHT22;3293;51.690;5.982;2024-01-30T04:37:36;7.60;99.90
6520;DHT22;3293;51.690;5.982;2024-01-30T04:42:36;7.60;99.90
6520;DHT22;3293;51.690;5.982;2024-01-30T04:47:36;7.50;99.90
6520;DHT22;3293;51.690;5.982;2024-01-30T04:52:36;7.50;99.90
6520;DHT22;3293;51.690;5.982;2024-01-30T04:57:36;7.50;99.90
6520;DHT22;3293;51.690;5.982;2024-01-30T05:02:36;7.60;99.90
6520;DHT22;3293;51.690;5.982;2024-01-30T05:07:38;7.70;99.90
6520;DHT22;3293;51.690;5.982;2024-01-30T05:12:39;7.70;99.90
6520;DHT22;3293;51.690;5.982;2024-01-30T05:17:39;7.70;99.90
6520;DHT22;3293;51.690;5.982;2024-01-30T05:22:39;7.70;99.90
6520;DHT22;3293;51.690;5.982;2024-01-30T05:27:44;7.70;99.90
6520;DHT22;3293;51.690;5.982;2024-01-30T05:32:44;7.70;99.90
6520;DHT22;3293;51.690;5.982;2024-01-30T05:37:44;7.80;99.90
6520;DHT22;3293;51.690;5.982;2024-01-30T05:42:44;7.80;99.90
6520;DHT22;3293;51.690;5.982;2024-01-30T05:47:44;7.90;99.90
6520;DHT22;3293;51.690;5.982;2024-01-30T05:52:44;7.90;99.90
6520;DHT22;3293;51.690;5.982;2024-01-30T05:57:44;7.90;99.90
6520;DHT22;3293;51.690;5.982;2024-01-30T06:02:43;7.90;99.90
6520;DHT22;3293;51.690;5.982;2024-01-30T06:07:43;7.90;99.90
6520;DHT22;3293;51.690;5.982;2024-01-30T06:12:43;8.00;99.90
6520;DHT22;3293;51.690;5.982;2024-01-30T06:17:43;8.00;99.90
6520;DHT22;3293;51.690;5.982;2024-01-30T06:22:43;8.00;99.90
6520;DHT22;3293;51.690;5.982;2024-01-30T06:27:43;8.00;99.90
6520;DHT22;3293;51.690;5.982;2024-01-30T06:32:43;8.00;99.90
6520;DHT22;3293;51.690;5.982;2024-01-30T06:37:43;8.00;99.90
6520;DHT22;3293;51.690;5.982;2024-01-30T06:42:43;8.00;99.90
6520;DHT22;3293;51.690;5.982;2024-01-30T06:47:43;8.00;99.90
6520;DHT22;3293;51.690;5.982;2024-01-30T06:52:42;8.00;99.90
6520;DHT22;3293;51.690;5.982;2024-01-30T06:57:42;8.00;99.90
6520;DHT22;3293;51.690;5.982;2024-01-30T07:02:42;8.10;99.90
6520;DHT22;3293;51.690;5.982;2024-01-30T07:07:42;8.10;99.90
6520;DHT22;3293;51.690;5.982;2024-01-30T07:12:42;8.20;99.90
6520;DHT22;3293;51.690;5.982;2024-01-30T07:17:42;8.20;99.90
6520;DHT22;3293;51.690;5.982;2024-01-30T07:22:43;8.20;99.90
6520;DHT22;3293;51.690;5.982;2024-01-30T07:27:43;8.20;99.90
6520;DHT22;3293;51.690;5.982;2024-01-30T07:32:43;8.20;99.90
6520;DHT22;3293;51.690;5.982;2024-01-30T07:37:43;8.20;99.90
6520;DHT22;3293;51.690;5.982;2024-01-30T07:42:43;8.30;99.90
6520;DHT22;3293;51.690;5.982;2024-01-30T07:47:43;8.30;99.90
6520;DHT22;3293;51.690;5.982;2024-01-30T07:52:43;8.30;99.90
6520;DHT22;3293;51.690;5.982;2024-01-30T07:57:43;8.30;99.90
6520;DHT22;3293;51.690;5.982;2024-01-30T08:02:43;8.30;99.90
6520;DHT22;3293;51.690;5.982;2024-01-30T08:07:43;8.50;99.90
6520;DHT22;3293;51.690;5.982;2024-01-30T08:12:43;8.50;99.90
6520;DHT22;3293;51.690;5.982;2024-01-30T08:17:43;8.60;99.90
6520;DHT22;3293;51.690;5.982;2024-01-30T08:22:44;8.70;99.90
6520;DHT22;3293;51.690;5.982;2024-01-30T08:27:44;8.70;99.90
6520;DHT22;3293;51.690;5.982;2024-01-30T08:32:44;8.80;99.90
6520;DHT22;3293;51.690;5.982;2024-01-30T08:37:44;8.90;99.90
6520;DHT22;3293;51.690;5.982;2024-01-30T08:42:44;9.00;99.90
6520;DHT22;3293;51.690;5.982;2024-01-30T08:47:44;9.20;99.90
6520;DHT22;3293;51.690;5.982;2024-01-30T08:52:44;9.30;99.90
6520;DHT22;3293;51.690;5.982;2024-01-30T08:57:44;9.40;99.90
6520;DHT22;3293;51.690;5.982;2024-01-30T09:02:43;9.60;99.90
6520;DHT22;3293;51.690;5.982;2024-01-30T09:07:43;9.60;99.90
6520;DHT22;3293;51.690;5.982;2024-01-30T09:12:43;9.80;99.90
6520;DHT22;3293;51.690;5.982;2024-01-30T09:17:43;9.90;99.90
6520;DHT22;3293;51.690;5.982;2024-01-30T09:22:43;10.00;99.90
6520;DHT22;3293;51.690;5.982;2024-01-30T09:27:43;10.20;99.90
6520;DHT22;3293;51.690;5.982;2024-01-30T09:32:43;10.30;99.90
6520;DHT22;3293;51.690;5.982;2024-01-30T09:37:43;10.40;99.90
6520;DHT22;3293;51.690;5.982;2024-01-30T09:42:46;10.50;99.90
6520;DHT22;3293;51.690;5.982;2024-01-30T09:47:46;10.50;99.90
6520;DHT22;3293;51.690;5.982;2024-01-30T09:52:47;10.50;99.90
6520;DHT22;3293;51.690;5.982;2024-01-30T09:57:47;10.60;99.90
6520;DHT22;3293;51.690;5.982;2024-01-30T10:02:47;10.70;99.90
6520;DHT22;3293;51.690;5.982;2024-01-30T10:07:53;10.80;99.90
6520;DHT22;3293;51.690;5.982;2024-01-30T10:12:53;10.80;99.90
6520;DHT22;3293;51.690;5.982;2024-01-30T10:17:53;10.80;99.90
6520;DHT22;3293;51.690;5.982;2024-01-30T10:22:53;10.80;99.90
6520;DHT22;3293;51.690;5.982;2024-01-30T10:27:54;10.90;99.90
6520;DHT22;3293;51.690;5.982;2024-01-30T10:32:57;11.00;99.90
6520;DHT22;3293;51.690;5.982;2024-01-30T10:37:58;11.00;99.90
6520;DHT22;3293;51.690;5.982;2024-01-30T10:43:00;11.10;99.90
6520;DHT22;3293;51.690;5.982;2024-01-30T10:48:01;11.20;99.90
6520;DHT22;3293;51.690;5.982;2024-01-30T10:53:04;11.30;99.90
6520;DHT22;3293;51.690;5.982;2024-01-30T10:58:04;11.30;99.90
6520;DHT22;3293;51.690;5.982;2024-01-30T11:03:05;11.30;99.90
6520;DHT22;3293;51.690;5.982;2024-01-30T11:08:14;11.20;99.90
6520;DHT22;3293;51.690;5.982;2024-01-30T11:13:15;11.30;99.90
6520;DHT22;3293;51.690;5.982;2024-01-30T11:18:35;11.50;99.90
6520;DHT22;3293;51.690;5.982;2024-01-30T11:23:36;11.80;99.90
6520;DHT22;3293;51.690;5.982;2024-01-30T11:28:38;11.80;99.90
6520;DHT22;3293;51.690;5.982;2024-01-30T11:33:38;11.80;99.90
6520;DHT22;3293;51.690;5.982;2024-01-30T11:38:38;11.90;99.90
6520;DHT22;3293;51.690;5.982;2024-01-30T11:43:38;12.00;99.90
6520;DHT22;3293;51.690;5.982;2024-01-30T11:48:38;12.20;99.90
6520;DHT22;3293;51.690;5.982;2024-01-30T11:53:38;12.10;99.90
6520;DHT22;3293;51.690;5.982;2024-01-30T11:58:42;12.10;99.90
6520;DHT22;3293;51.690;5.982;2024-01-30T12:03:42;12.00;99.90
6520;DHT22;3293;51.690;5.982;2024-01-30T12:08:42;12.00;99.90
6520;DHT22;3293;51.690;5.982;2024-01-30T12:13:43;12.00;99.90
6520;DHT22;3293;51.690;5.982;2024-01-30T12:18:43;12.10;99.90
6520;DHT22;3293;51.690;5.982;2024-01-30T12:23:43;12.30;99.90
6520;DHT22;3293;51.690;5.982;2024-01-30T12:28:49;12.40;99.90
6520;DHT22;3293;51.690;5.982;2024-01-30T12:33:49;12.50;99.90
6520;DHT22;3293;51.690;5.982;2024-01-30T12:38:50;12.40;99.90
6520;DHT22;3293;51.690;5.982;2024-01-30T12:43:50;12.40;99.90
6520;DHT22;3293;51.690;5.982;2024-01-30T12:48:50;12.20;99.90
6520;DHT22;3293;51.690;5.982;2024-01-30T12:53:50;12.10;99.90
6520;DHT22;3293;51.690;5.982;2024-01-30T12:58:50;12.10;99.90
6520;DHT22;3293;51.690;5.982;2024-01-30T13:03:50;12.10;99.90
6520;DHT22;3293;51.690;5.982;2024-01-30T13:08:50;12.00;99.90
6520;DHT22;3293;51.690;5.982;2024-01-30T13:13:50;11.80;99.90
6520;DHT22;3293;51.690;5.982;2024-01-30T13:18:50;11.70;99.90
6520;DHT22;3293;51.690;5.982;2024-01-30T13:23:50;11.60;99.90
6520;DHT22;3293;51.690;5.982;2024-01-30T13:28:52;11.50;99.90
6520;DHT22;3293;51.690;5.982;2024-01-30T13:33:52;11.40;99.90
6520;DHT22;3293;51.690;5.982;2024-01-30T13:38:52;11.50;99.90
6520;DHT22;3293;51.690;5.982;2024-01-30T13:43:52;11.60;99.90
6520;DHT22;3293;51.690;5.982;2024-01-30T13:48:53;11.70;99.90
6520;DHT22;3293;51.690;5.982;2024-01-30T13:53:53;11.70;99.90
6520;DHT22;3293;51.690;5.982;2024-01-30T13:58:53;11.50;99.90
6520;DHT22;3293;51.690;5.982;2024-01-30T14:03:55;11.50;99.90
6520;DHT22;3293;51.690;5.982;2024-01-30T14:08:55;11.40;99.90
6520;DHT22;3293;51.690;5.982;2024-01-30T14:13:55;11.50;99.90
6520;DHT22;3293;51.690;5.982;2024-01-30T14:18:55;11.50;99.90
6520;DHT22;3293;51.690;5.982;2024-01-30T14:23:55;11.40;99.90
6520;DHT22;3293;51.690;5.982;2024-01-30T14:28:55;11.20;99.90
6520;DHT22;3293;51.690;5.982;2024-01-30T14:33:55;11.10;99.90
6520;DHT22;3293;51.690;5.982;2024-01-30T14:38:55;11.10;99.90
6520;DHT22;3293;51.690;5.982;2024-01-30T14:43:55;10.90;99.90
6520;DHT22;3293;51.690;5.982;2024-01-30T14:48:55;10.80;99.90
6520;DHT22;3293;51.690;5.982;2024-01-30T14:53:57;10.70;99.90
6520;DHT22;3293;51.690;5.982;2024-01-30T14:58:57;10.60;99.90
6520;DHT22;3293;51.690;5.982;2024-01-30T15:03:57;10.60;99.90
6520;DHT22;3293;51.690;5.982;2024-01-30T15:08:57;10.50;99.90
6520;DHT22;3293;51.690;5.982;2024-01-30T15:13:56;10.50;99.90
6520;DHT22;3293;51.690;5.982;2024-01-30T15:18:56;10.30;99.90
6520;DHT22;3293;51.690;5.982;2024-01-30T15:23:56;10.10;99.90
6520;DHT22;3293;51.690;5.982;2024-01-30T15:28:56;9.90;99.90
6520;DHT22;3293;51.690;5.982;2024-01-30T15:33:56;9.60;99.90
6520;DHT22;3293;51.690;5.982;2024-01-30T15:38:57;9.50;99.90
6520;DHT22;3293;51.690;5.982;2024-01-30T15:43:57;9.40;99.90
6520;DHT22;3293;51.690;5.982;2024-01-30T15:48:58;9.20;99.90
6520;DHT22;3293;51.690;5.982;2024-01-30T15:53:59;9.10;99.90
6520;DHT22;3293;51.690;5.982;2024-01-30T15:58:59;9.10;99.90
6520;DHT22;3293;51.690;5.982;2024-01-30T16:03:59;9.10;99.90
6520;DHT22;3293;51.690;5.982;2024-01-30T16:08:59;9.00;99.90
6520;DHT22;3293;51.690;5.982;2024-01-30T16:13:59;9.00;99.90
6520;DHT22;3293;51.690;5.982;2024-01-30T16:18:59;9.00;99.90
6520;DHT22;3293;51.690;5.982;2024-01-30T16:23:59;9.00;99.90
6520;DHT22;3293;51.690;5.982;2024-01-30T16:28:59;9.00;99.90
6520;DHT22;3293;51.690;5.982;2024-01-30T16:33:59;8.90;99.90
6520;DHT22;3293;51.690;5.982;2024-01-30T16:38:59;8.90;99.90
6520;DHT22;3293;51.690;5.982;2024-01-30T16:44:02;8.90;99.90
6520;DHT22;3293;51.690;5.982;2024-01-30T16:49:03;8.80;99.90
6520;DHT22;3293;51.690;5.982;2024-01-30T16:54:03;8.80;99.90
6520;DHT22;3293;51.690;5.982;2024-01-30T16:59:03;8.80;99.90
6520;DHT22;3293;51.690;5.982;2024-01-30T17:04:03;8.80;99.90
6520;DHT22;3293;51.690;5.982;2024-01-30T17:09:03;8.80;99.90
6520;DHT22;3293;51.690;5.982;2024-01-30T17:14:02;8.60;99.90
6520;DHT22;3293;51.690;5.982;2024-01-30T17:19:02;8.50;99.90
6520;DHT22;3293;51.690;5.982;2024-01-30T17:24:03;8.40;99.90
6520;DHT22;3293;51.690;5.982;2024-01-30T17:29:03;8.30;99.90
6520;DHT22;3293;51.690;5.982;2024-01-30T17:34:03;8.20;99.90
6520;DHT22;3293;51.690;5.982;2024-01-30T17:39:03;8.20;99.90
6520;DHT22;3293;51.690;5.982;2024-01-30T17:44:03;8.20;99.90
6520;DHT22;3293;51.690;5.982;2024-01-30T17:49:03;8.20;99.90
6520;DHT22;3293;51.690;5.982;2024-01-30T17:54:04;8.10;99.90
6520;DHT22;3293;51.690;5.982;2024-01-30T17:59:03;8.10;99.90
6520;DHT22;3293;51.690;5.982;2024-01-30T18:04:03;8.10;99.90
6520;DHT22;3293;51.690;5.982;2024-01-30T18:09:03;8.00;99.90
6520;DHT22;3293;51.690;5.982;2024-01-30T18:14:04;8.00;99.90
6520;DHT22;3293;51.690;5.982;2024-01-30T18:19:04;8.00;99.90
6520;DHT22;3293;51.690;5.982;2024-01-30T18:24:04;8.00;99.90
6520;DHT22;3293;51.690;5.982;2024-01-30T18:29:04;8.00;99.90
6520;DHT22;3293;51.690;5.982;2024-01-30T18:34:06;8.00;99.90
6520;DHT22;3293;51.690;5.982;2024-01-30T18:39:06;8.00;99.90
6520;DHT22;3293;51.690;5.982;2024-01-30T18:44:06;7.90;99.90
6520;DHT22;3293;51.690;5.982;2024-01-30T18:49:07;7.90;99.90
6520;DHT22;3293;51.690;5.982;2024-01-30T18:54:07;7.90;99.90
6520;DHT22;3293;51.690;5.982;2024-01-30T18:59:07;7.90;99.90
6520;DHT22;3293;51.690;5.982;2024-01-30T19:04:07;7.90;99.90
6520;DHT22;3293;51.690;5.982;2024-01-30T19:09:07;7.90;99.90
6520;DHT22;3293;51.690;5.982;2024-01-30T19:14:07;8.00;99.90
6520;DHT22;3293;51.690;5.982;2024-01-30T19:19:07;7.90;99.90
6520;DHT22;3293;51.690;5.982;2024-01-30T19:24:07;7.90;99.90
6520;DHT22;3293;51.690;5.982;2024-01-30T19:29:07;7.90;99.90
6520;DHT22;3293;51.690;5.982;2024-01-30T19:34:07;8.00;99.90
6520;DHT22;3293;51.690;5.982;2024-01-30T19:39:07;7.90;99.90
6520;DHT22;3293;51.690;5.982;2024-01-30T19:44:14;7.90;99.90
6520;DHT22;3293;51.690;5.982;2024-01-30T19:49:14;7.90;99.90
6520;DHT22;3293;51.690;5.982;2024-01-30T19:54:15;7.90;99.90
6520;DHT22;3293;51.690;5.982;2024-01-30T19:59:17;7.80;99.90
6520;DHT22;3293;51.690;5.982;2024-01-30T20:04:17;7.80;99.90
6520;DHT22;3293;51.690;5.982;2024-01-30T20:09:17;7.70;99.90
6520;DHT22;3293;51.690;5.982;2024-01-30T20:14:17;7.70;99.90
6520;DHT22;3293;51.690;5.982;2024-01-30T20:19:16;7.70;99.90
6520;DHT22;3293;51.690;5.982;2024-01-30T20:24:16;7.70;99.90
6520;DHT22;3293;51.690;5.982;2024-01-30T20:29:17;7.60;99.90
6520;DHT22;3293;51.690;5.982;2024-01-30T20:34:17;7.60;99.90
6520;DHT22;3293;51.690;5.982;2024-01-30T20:39:17;7.60;99.90
6520;DHT22;3293;51.690;5.982;2024-01-30T20:44:18;7.60;99.90
6520;DHT22;3293;51.690;5.982;2024-01-30T20:49:19;7.60;99.90
6520;DHT22;3293;51.690;5.982;2024-01-30T20:54:19;7.60;99.90
6520;DHT22;3293;51.690;5.982;2024-01-30T20:59:19;7.70;99.90
6520;DHT22;3293;51.690;5.982;2024-01-30T21:04:19;7.70;99.90
6520;DHT22;3293;51.690;5.982;2024-01-30T21:09:18;7.70;99.90
6520;DHT22;3293;51.690;5.982;2024-01-30T21:14:18;7.70;99.90
6520;DHT22;3293;51.690;5.982;2024-01-30T21:19:18;7.70;99.90
6520;DHT22;3293;51.690;5.982;2024-01-30T21:24:18;7.60;99.90
6520;DHT22;3293;51.690;5.982;2024-01-30T21:29:18;7.60;99.90
6520;DHT22;3293;51.690;5.982;2024-01-30T21:34:18;7.50;99.90
6520;DHT22;3293;51.690;5.982;2024-01-30T21:39:18;7.40;99.90
6520;DHT22;3293;51.690;5.982;2024-01-30T21:44:18;7.40;99.90
6520;DHT22;3293;51.690;5.982;2024-01-30T21:49:18;7.40;99.90
6520;DHT22;3293;51.690;5.982;2024-01-30T21:54:18;7.40;99.90
6520;DHT22;3293;51.690;5.982;2024-01-30T21:59:18;7.30;99.90
6520;DHT22;3293;51.690;5.982;2024-01-30T22:04:18;7.30;99.90
6520;DHT22;3293;51.690;5.982;2024-01-30T22:09:20;7.30;99.90
6520;DHT22;3293;51.690;5.982;2024-01-30T22:14:22;7.30;99.90
6520;DHT22;3293;51.690;5.982;2024-01-30T22:19:22;7.20;99.90
6520;DHT22;3293;51.690;5.982;2024-01-30T22:24:22;7.10;99.90
6520;DHT22;3293;51.690;5.982;2024-01-30T22:29:21;7.20;99.90
6520;DHT22;3293;51.690;5.982;2024-01-30T22:34:21;7.10;99.90
6520;DHT22;3293;51.690;5.982;2024-01-30T22:39:21;7.10;99.90
6520;DHT22;3293;51.690;5.982;2024-01-30T22:44:21;7.10;99.90
6520;DHT22;3293;51.690;5.982;2024-01-30T22:49:21;7.10;99.90
6520;DHT22;3293;51.690;5.982;2024-01-30T22:54:21;7.00;99.90
6520;DHT22;3293;51.690;5.982;2024-01-30T22:59:21;7.00;99.90
6520;DHT22;3293;51.690;5.982;2024-01-30T23:04:21;7.00;99.90
6520;DHT22;3293;51.690;5.982;2024-01-30T23:09:21;7.00;99.90
6520;DHT22;3293;51.690;5.982;2024-01-30T23:14:21;7.10;99.90
6520;DHT22;3293;51.690;5.982;2024-01-30T23:19:20;7.00;99.90
6520;DHT22;3293;51.690;5.982;2024-01-30T23:24:20;7.00;99.90
6520;DHT22;3293;51.690;5.982;2024-01-30T23:29:20;7.10;99.90
6520;DHT22;3293;51.690;5.982;2024-01-30T23:34:20;7.00;99.90
6520;DHT22;3293;51.690;5.982;2024-01-30T23:39:20;7.00;99.90
6520;DHT22;3293;51.690;5.982;2024-01-30T23:44:20;7.00;99.90
6520;DHT22;3293;51.690;5.982;2024-01-30T23:49:20;7.00;99.90
6520;DHT22;3293;51.690;5.982;2024-01-30T23:54:21;6.90;99.90
6520;DHT22;3293;51.690;5.982;2024-01-30T23:59:21;6.90;99.90
